Echo, Louisiana
Current Conditions -  °F | °C
As of 12:53 PM on Thursday 23 Oct 2014 (Local Time) from KESF Reporting Station
Clear Clear  
Wind Chill: 65°   Ceiling: Unl
Heat Index: 65°   Visibility: 10mi
Dew Point: 50°   Wind: 0mph
Humidity: 58%   Direction: NA
Pressure: 30.15"   Gusts: NA
Location:  31.11°N, 92.24°W
Report Text: KESF 231753Z AUTO 00000KT 10SM CLR 18/10 A3015 RMK AO2 SLP207 T01830100 10183 20078 58003
Loading
Personal Weather Stations






























Interactive Weather Map
Tropical Storm Tracking
New forecast layout! Learn more

10-Day Weather Forecast

Advertisements
Track Severe Weather on mobile